Grand Rapids, MI (49534)

1:22 PM EST on February 12, 2016 (GMT -0500)
Walker, MI | | Change Station
CLOSE
Current Station
Personal Weather Station
Location: Walker, MI
Elevation: 738 ft
Nearby Weather Stations
Active Advisory: Winter Weather Advisory Active Notice: Local Storm Report

Elev 738 ft 43.00 °N, 85.76 °W | Updated 9 minutes ago

Snow
Snow
22.1 °F
Feels Like 14 °F
N
6.7
Wind Variable Wind from NE

Today
High -- | Low -- °F
--% Chance of Precip.
Yesterday
High -- | Low -- °F
Precip. -- in
Pressure 30.06 in
Visibility 2.5 miles
Clouds Scattered Clouds 1500 ft
Mostly Cloudy 2900 ft
Windchill 14 °F
Dew Point 12 °F
Humidity 63%
Rainfall 0.00 in
Snow Depth Not available.
7:45 AM 6:09 PM
Waxing Crescent, 22% visible
METAR KGRR 121753Z 32015KT 2 1/2SM R26L/4500VP6000FT -SN SCT015 BKN029 M07/M11 A3001 RMK AO2 SLP177 4/001 P0000 60001 T10671111 11056 21072 55003
Pressure 30.06 in
Visibility 2.5 miles
Clouds Scattered Clouds 1500 ft
Mostly Cloudy 2900 ft
Windchill 14 °F
Dew Point 12 °F
Humidity 63%
Rainfall 0.00 in
Snow Depth Not available.
7:45 AM 6:09 PM
Waxing Crescent, 22% visible
METAR KGRR 121753Z 32015KT 2 1/2SM R26L/4500VP6000FT -SN SCT015 BKN029 M07/M11 A3001 RMK AO2 SLP177 4/001 P0000 60001 T10671111 11056 21072 55003

10-Day Weather Forecast

Almanac

Astronomy

Feb. 12, 2016 Rise Set
Actual Time
Civil Twilight
Nautical Twilight
Astronomical Twilight
Moon
Length of Visible Light
Length of Day
Tomorrow will be .
, % of the Moon is Illuminated

Today's Extremes

State Highs State Lows

Community

WunderPhotos

Upload Photos

1,892,364 photos uploaded!

WunderBlog® & News

Nearby

Air Quality

  Air Quality AQ Index Pollutant
Not available.

Snow Depth

Station Depth Elevation

Earthquake Activity

City Distance Mag. Time & Date
Minimum magnitude displayed is 2.5.

Coastal Water Temperatures

Place Temperature

Stations

Nearby Weather Stations

Station Location Temp. Windchill Dew Point Humidity Wind Precip. Elev Updated Type
                   

Watches & Warnings

Winter Weather Advisory
Issued: 11:42 AM EST Feb. 12, 2016 – National Weather Service

... Winter Weather Advisory remains in effect until 7 PM EST this
evening...

Hazardous weather...

* snow showers through the afternoon.

* Intense snow burst around 6 PM near I-96 and 8 PM near I-94.

* Total snow 1 to 3 inches.

* Gusty winds in the late this afternoon will result in blowing
   snow.

Impacts...

* hazardous travel from mid morning through early evening.

* Accidents and slideoffs due to slippery roads and low
   visibilities.

Precautionary/preparedness actions...

* the Michigan Department of Transportation reminds motorists
   to adjust speeds based on the conditions... and to take it
   slow in ice and snow.



Wdm